createdAt,value
2023-01-06T09:02:14.728Z,76.28
2023-01-06T09:04:55.254Z,75.13
2023-01-06T09:07:22.594Z,74.79
2023-01-06T09:09:49.970Z,74.70
2023-01-06T09:12:17.353Z,74.55
2023-01-06T09:14:44.755Z,74.73
2023-01-06T09:17:12.145Z,74.01
2023-01-06T09:19:39.505Z,73.78
2023-01-06T09:22:07.274Z,74.47
2023-01-06T09:24:34.673Z,73.77
2023-01-06T09:27:02.058Z,74.19
2023-01-06T09:29:29.445Z,74.60
2023-01-06T09:31:56.778Z,74.17
2023-01-06T09:34:24.160Z,74.44
2023-01-06T09:36:51.491Z,74.46
2023-01-06T09:39:20.120Z,74.85
2023-01-06T09:42:36.895Z,74.31
2023-01-06T09:45:18.261Z,75.39
2023-01-06T09:47:56.194Z,75.96
2023-01-06T09:50:43.973Z,76.27
2023-01-06T09:53:30.583Z,76.92
2023-01-06T09:56:03.095Z,76.38
2023-01-06T09:59:10.670Z,76.18
2023-01-06T10:01:48.758Z,75.94
2023-01-06T10:04:30.962Z,75.22
2023-01-06T10:08:21.518Z,75.28
2023-01-06T10:11:59.588Z,74.78
2023-01-06T10:15:06.617Z,74.99
2023-01-06T10:18:41.518Z,74.31
2023-01-06T10:22:05.611Z,74.17
2023-01-06T10:25:02.881Z,73.12
2023-01-06T10:27:58.504Z,72.75
2023-01-06T10:30:45.752Z,72.44
2023-01-06T10:33:37.476Z,71.69
2023-01-06T10:36:17.186Z,71.81
2023-01-06T10:38:55.685Z,71.55
2023-01-06T10:41:45.744Z,72.05
2023-01-06T10:44:14.075Z,72.28
2023-01-06T10:46:45.266Z,74.15
2023-01-06T10:49:19.401Z,74.79
2023-01-06T10:52:00.641Z,74.86
2023-01-06T10:54:34.200Z,75.99
2023-01-06T10:57:17.964Z,76.07
2023-01-06T11:00:17.415Z,76.07
2023-01-06T11:03:14.284Z,75.65
2023-01-06T11:05:47.312Z,75.19
2023-01-06T11:08:17.007Z,74.15
2023-01-06T11:10:56.323Z,73.92
2023-01-06T11:13:37.089Z,74.43
2023-01-06T11:16:36.952Z,73.92
2023-01-06T11:19:21.536Z,74.15
2023-01-06T11:21:49.076Z,74.39
2023-01-06T11:24:26.989Z,75.11
2023-01-06T11:27:16.190Z,74.89
2023-01-06T11:29:43.633Z,75.23
2023-01-06T11:32:28.625Z,76.50
2023-01-06T11:35:06.521Z,76.80
2023-01-06T11:37:43.389Z,77.02
2023-01-06T11:40:34.216Z,78.02
2023-01-06T11:43:32.652Z,78.72
2023-01-06T11:46:09.232Z,79.69
2023-01-06T11:49:04.003Z,79.41
2023-01-06T11:51:48.959Z,78.64
2023-01-06T11:54:40.536Z,78.16
2023-01-06T11:57:55.970Z,78.05
2023-01-06T12:01:08.231Z,78.85
2023-01-06T12:03:44.977Z,77.66
2023-01-06T12:06:34.568Z,78.03
2023-01-06T12:09:40.718Z,77.21
2023-01-06T12:12:15.834Z,76.70
2023-01-06T12:14:43.223Z,76.50
2023-01-06T12:17:36.051Z,76.24
2023-01-06T12:20:33.442Z,74.72
2023-01-06T12:23:39.834Z,74.35
2023-01-06T12:26:25.254Z,76.06
2023-01-06T12:28:56.273Z,76.04
2023-01-06T12:32:05.459Z,75.79
2023-01-06T12:34:50.325Z,75.57
2023-01-06T12:37:53.586Z,75.09
2023-01-06T12:40:52.632Z,74.52
2023-01-06T12:43:24.776Z,74.50
2023-01-06T12:46:04.932Z,74.28
2023-01-06T12:48:59.332Z,74.05
2023-01-06T12:51:54.556Z,73.99
2023-01-06T12:54:36.498Z,72.86
2023-01-06T12:58:06.362Z,72.92
2023-01-06T13:01:01.544Z,73.22
2023-01-06T13:04:21.184Z,72.86
2023-01-06T13:08:28.412Z,72.28
2023-01-06T13:11:40.250Z,71.85
2023-01-06T13:15:11.817Z,71.64
2023-01-06T13:18:15.204Z,72.11
2023-01-06T13:21:00.624Z,71.77
2023-01-06T13:23:57.124Z,71.74
2023-01-06T13:27:18.902Z,71.79
2023-01-06T13:30:36.191Z,70.85
2023-01-06T13:33:23.582Z,71.67
2023-01-06T13:36:35.096Z,71.53
2023-01-06T13:39:30.713Z,70.95
2023-01-06T13:42:03.981Z,71.63
2023-01-06T13:44:37.387Z,70.97
2023-01-06T13:47:24.471Z,71.22
2023-01-06T13:49:53.033Z,71.51
2023-01-06T13:52:28.915Z,71.11
2023-01-06T13:55:32.729Z,70.85
2023-01-06T13:58:25.764Z,70.40
2023-01-06T14:01:20.792Z,70.34
2023-01-06T14:03:51.576Z,71.22
2023-01-06T14:06:24.967Z,71.20
2023-01-06T14:08:58.574Z,70.46
2023-01-06T14:11:38.849Z,71.07
2023-01-06T14:14:32.885Z,70.78
2023-01-06T14:17:00.455Z,70.39
2023-01-06T14:19:37.986Z,70.64
2023-01-06T14:22:26.236Z,69.78
2023-01-06T14:25:08.647Z,70.05
2023-01-06T14:27:48.054Z,69.97
2023-01-06T14:30:33.758Z,69.97
2023-01-06T14:33:38.225Z,70.23
2023-01-06T14:36:17.539Z,70.71
2023-01-06T14:39:02.402Z,70.79
2023-01-06T14:41:45.556Z,70.32
2023-01-06T14:44:44.225Z,69.94
2023-01-06T14:47:42.671Z,70.55
2023-01-06T14:50:47.467Z,70.49
2023-01-06T14:53:38.875Z,70.24
2023-01-06T14:56:11.363Z,70.98
2023-01-06T14:58:38.735Z,70.94
2023-01-06T15:01:30.876Z,70.16
2023-01-06T15:04:03.169Z,70.94
2023-01-06T15:06:32.349Z,70.95
2023-01-06T15:09:21.047Z,70.78
2023-01-06T15:11:49.351Z,70.80
2023-01-06T15:14:35.291Z,71.31
2023-01-06T15:17:06.796Z,70.98
2023-01-06T15:19:35.745Z,70.74
2023-01-06T15:22:08.750Z,70.51
2023-01-06T15:24:42.894Z,70.53
2023-01-06T15:27:16.560Z,70.94
2023-01-06T15:29:57.251Z,71.27
2023-01-06T15:32:28.107Z,70.84
2023-01-06T15:34:58.107Z,71.22
2023-01-06T15:37:34.750Z,71.29
2023-01-06T15:40:05.212Z,71.24
2023-01-06T15:42:33.037Z,71.28
2023-01-06T15:45:06.746Z,70.79
2023-01-06T15:47:45.813Z,70.83
2023-01-06T15:50:34.200Z,70.64
2023-01-06T15:53:15.960Z,70.98
2023-01-06T15:55:49.081Z,71.27
2023-01-06T15:58:30.507Z,71.09
2023-01-06T16:01:12.014Z,70.97
2023-01-06T16:03:40.100Z,71.08
2023-01-06T16:06:15.460Z,71.00
2023-01-06T16:08:44.189Z,70.85
2023-01-06T16:11:17.339Z,70.32
2023-01-06T16:13:59.036Z,70.65
2023-01-06T16:16:37.922Z,70.71
2023-01-06T16:19:28.145Z,70.75
